createdAt,value
2022-09-11T00:01:16.711Z,12.69
2022-09-11T00:03:44.946Z,12.74
2022-09-11T00:06:14.185Z,12.71
2022-09-11T00:08:41.860Z,12.71
2022-09-11T00:11:17.359Z,12.82
2022-09-11T00:13:49.056Z,12.77
2022-09-11T00:16:20.358Z,12.76
2022-09-11T00:18:50.494Z,12.71
2022-09-11T00:21:18.131Z,12.83
2022-09-11T00:23:44.963Z,12.81
2022-09-11T00:26:11.825Z,12.80
2022-09-11T00:28:38.526Z,12.78
2022-09-11T00:31:13.604Z,12.87
2022-09-11T00:33:40.638Z,12.89
2022-09-11T00:36:12.725Z,13.13
2022-09-11T00:38:39.742Z,13.01
2022-09-11T00:41:22.396Z,13.09
2022-09-11T00:44:04.648Z,13.07
2022-09-11T00:46:42.260Z,13.02
2022-09-11T00:49:16.707Z,12.91
2022-09-11T00:51:47.929Z,12.93
2022-09-11T00:54:19.185Z,13.07
2022-09-11T00:56:47.454Z,12.87
2022-09-11T00:59:15.569Z,12.79
2022-09-11T01:01:42.197Z,12.85
2022-09-11T01:04:09.343Z,12.73
2022-09-11T01:06:36.140Z,12.79
2022-09-11T01:09:04.221Z,12.81
2022-09-11T01:11:49.486Z,12.81
2022-09-11T01:14:34.930Z,12.89
2022-09-11T01:17:20.444Z,12.77
2022-09-11T01:19:47.032Z,12.77
2022-09-11T01:22:31.487Z,12.75
2022-09-11T01:25:23.518Z,12.73
2022-09-11T01:27:52.997Z,12.95
2022-09-11T01:30:22.305Z,12.87
2022-09-11T01:33:07.309Z,12.97
2022-09-11T01:35:44.724Z,12.90
2022-09-11T01:38:29.048Z,12.89
2022-09-11T01:41:07.759Z,12.86
2022-09-11T01:43:41.241Z,12.84
2022-09-11T01:46:13.842Z,12.75
2022-09-11T01:48:52.239Z,12.73
2022-09-11T01:51:24.993Z,12.86
2022-09-11T01:53:53.878Z,13.05
2022-09-11T01:56:26.056Z,12.78
2022-09-11T01:58:59.466Z,12.73
2022-09-11T02:01:32.591Z,12.72
2022-09-11T02:04:25.466Z,12.73
2022-09-11T02:06:59.283Z,12.89
2022-09-11T02:09:33.815Z,12.82
2022-09-11T02:12:07.120Z,12.82
2022-09-11T02:14:42.829Z,12.72
2022-09-11T02:17:15.475Z,12.59
2022-09-11T02:19:43.040Z,12.55
2022-09-11T02:22:09.857Z,12.70
2022-09-11T02:24:37.890Z,12.73
2022-09-11T02:27:07.970Z,12.80
2022-09-11T02:29:35.814Z,12.69
2022-09-11T02:32:03.893Z,12.68
2022-09-11T02:34:35.468Z,12.74
2022-09-11T02:37:25.493Z,12.64
2022-09-11T02:40:03.108Z,12.70
2022-09-11T02:42:43.405Z,12.71
2022-09-11T02:45:44.489Z,12.78
2022-09-11T02:48:32.716Z,12.79
2022-09-11T02:51:18.064Z,12.74
2022-09-11T02:54:02.198Z,12.73
2022-09-11T02:56:52.281Z,12.74
2022-09-11T02:59:30.373Z,12.67
2022-09-11T03:02:02.166Z,12.79
2022-09-11T03:04:30.913Z,12.75
2022-09-11T03:06:58.716Z,12.87
2022-09-11T03:09:25.535Z,12.79
2022-09-11T03:11:58.290Z,12.75
2022-09-11T03:14:24.886Z,12.74
2022-09-11T03:16:51.461Z,12.75
2022-09-11T03:19:19.362Z,12.76
2022-09-11T03:21:45.920Z,12.71
2022-09-11T03:24:13.228Z,12.69
2022-09-11T03:26:40.037Z,12.69
2022-09-11T03:29:08.508Z,12.67
2022-09-11T03:31:39.104Z,12.62
2022-09-11T03:34:06.490Z,12.65
2022-09-11T03:36:36.380Z,12.67
2022-09-11T03:39:03.527Z,12.69
2022-09-11T03:41:31.160Z,12.64
2022-09-11T03:43:57.755Z,12.76
2022-09-11T03:46:24.628Z,12.80
2022-09-11T03:48:52.477Z,12.72
2022-09-11T03:51:19.990Z,12.71
2022-09-11T03:53:46.906Z,12.72
2022-09-11T03:56:14.984Z,12.74
2022-09-11T03:58:46.415Z,12.81
2022-09-11T04:01:15.125Z,12.75
2022-09-11T04:03:43.076Z,12.80
2022-09-11T04:06:16.568Z,12.74
2022-09-11T04:08:43.490Z,12.77
2022-09-11T04:11:11.974Z,12.74
2022-09-11T04:13:40.095Z,12.88
2022-09-11T04:16:12.695Z,12.91
2022-09-11T04:18:42.784Z,12.93
2022-09-11T04:21:12.126Z,12.84
2022-09-11T04:23:39.857Z,12.77
2022-09-11T04:26:18.782Z,12.83
2022-09-11T04:28:48.598Z,12.82
2022-09-11T04:31:17.027Z,12.79
2022-09-11T04:33:44.807Z,12.95
2022-09-11T04:36:14.115Z,13.05
2022-09-11T04:38:41.939Z,13.16
2022-09-11T04:41:11.962Z,13.03
2022-09-11T04:43:40.425Z,13.14
2022-09-11T04:46:14.274Z,13.15
2022-09-11T04:48:51.653Z,13.11
2022-09-11T04:51:24.305Z,13.13
2022-09-11T04:53:52.621Z,12.96
2022-09-11T04:56:21.265Z,13.13
2022-09-11T04:58:55.224Z,13.20
2022-09-11T05:01:26.242Z,13.19
2022-09-11T05:03:56.408Z,13.33
2022-09-11T05:06:23.474Z,13.16
2022-09-11T05:08:50.983Z,13.23
2022-09-11T05:11:20.905Z,13.32
2022-09-11T05:13:48.563Z,13.17
2022-09-11T05:16:17.222Z,13.08
2022-09-11T05:18:52.023Z,12.92
2022-09-11T05:21:25.248Z,12.80
2022-09-11T05:23:55.046Z,12.77
2022-09-11T05:26:24.664Z,12.70
2022-09-11T05:28:55.893Z,12.82
2022-09-11T05:31:25.382Z,13.13
2022-09-11T05:33:55.880Z,13.24
2022-09-11T05:36:23.806Z,13.28
2022-09-11T05:38:50.492Z,13.13
2022-09-11T05:41:17.469Z,13.10
2022-09-11T05:43:44.474Z,13.26
2022-09-11T05:46:13.379Z,13.44
2022-09-11T05:48:40.908Z,13.22
2022-09-11T05:51:21.382Z,13.08
2022-09-11T05:53:54.045Z,13.20
2022-09-11T05:56:25.571Z,13.21
2022-09-11T05:58:57.996Z,13.43
2022-09-11T06:01:31.658Z,13.56
2022-09-11T06:04:12.747Z,13.46
2022-09-11T06:06:42.048Z,13.40
2022-09-11T06:09:08.653Z,13.29
2022-09-11T06:11:35.523Z,13.42
2022-09-11T06:14:03.091Z,13.39
2022-09-11T06:16:31.531Z,13.38
2022-09-11T06:19:04.814Z,13.64
2022-09-11T06:21:31.615Z,13.72
2022-09-11T06:24:18.712Z,13.85
2022-09-11T06:26:46.621Z,13.95
2022-09-11T06:29:16.918Z,13.88
2022-09-11T06:31:51.157Z,13.77
2022-09-11T06:34:21.035Z,13.85
2022-09-11T06:36:51.856Z,13.87
2022-09-11T06:39:23.180Z,14.08
2022-09-11T06:41:50.673Z,13.97
2022-09-11T06:44:19.980Z,14.04
2022-09-11T06:46:47.370Z,13.95
2022-09-11T06:49:14.411Z,13.95
2022-09-11T06:52:00.914Z,13.85
2022-09-11T06:54:28.915Z,14.11
2022-09-11T06:56:56.817Z,14.04
2022-09-11T06:59:24.527Z,14.00
2022-09-11T07:01:54.744Z,13.91
2022-09-11T07:04:23.384Z,13.92
2022-09-11T07:06:50.574Z,13.95
2022-09-11T07:09:17.567Z,13.93
2022-09-11T07:11:50.345Z,14.12
2022-09-11T07:14:23.662Z,14.23
2022-09-11T07:16:55.614Z,14.30
2022-09-11T07:19:24.962Z,14.54
2022-09-11T07:21:51.934Z,14.41
2022-09-11T07:24:19.548Z,14.41
2022-09-11T07:26:46.374Z,14.43
2022-09-11T07:29:22.306Z,14.45
2022-09-11T07:31:49.365Z,14.48
2022-09-11T07:34:16.407Z,14.66
2022-09-11T07:36:45.458Z,14.71
2022-09-11T07:39:14.613Z,14.83
2022-09-11T07:41:50.610Z,15.03
2022-09-11T07:44:23.652Z,15.13
2022-09-11T07:46:50.997Z,15.02
2022-09-11T07:49:20.737Z,14.86
2022-09-11T07:51:47.522Z,15.13
2022-09-11T07:54:21.740Z,15.25
2022-09-11T07:56:48.745Z,15.31
2022-09-11T07:59:18.261Z,15.60
2022-09-11T08:01:50.189Z,15.36
2022-09-11T08:04:16.950Z,15.23
2022-09-11T08:06:44.007Z,15.17
2022-09-11T08:09:16.739Z,15.26
2022-09-11T08:11:49.277Z,15.20
2022-09-11T08:14:18.206Z,15.32
2022-09-11T08:16:48.287Z,15.21
2022-09-11T08:19:18.572Z,15.11
2022-09-11T08:21:49.792Z,15.16
2022-09-11T08:24:17.739Z,15.24
2022-09-11T08:26:48.716Z,15.20
2022-09-11T08:29:18.249Z,15.29
2022-09-11T08:31:45.428Z,15.28
2022-09-11T08:34:13.104Z,15.54
2022-09-11T08:36:39.774Z,15.62
2022-09-11T08:39:08.948Z,15.74
2022-09-11T08:41:42.803Z,15.61
2022-09-11T08:44:09.795Z,15.57
2022-09-11T08:46:40.496Z,15.51
2022-09-11T08:49:23.569Z,15.44
2022-09-11T08:51:56.179Z,15.23
2022-09-11T08:54:33.481Z,15.19
2022-09-11T08:57:29.098Z,15.07
2022-09-11T09:00:27.070Z,15.06
2022-09-11T09:03:02.441Z,15.06
2022-09-11T09:06:08.548Z,15.02
2022-09-11T09:08:35.242Z,15.08
2022-09-11T09:11:14.112Z,15.21
2022-09-11T09:13:55.275Z,15.51
2022-09-11T09:16:28.108Z,15.47
2022-09-11T09:19:03.320Z,15.45
2022-09-11T09:22:01.380Z,15.39
2022-09-11T09:24:35.201Z,15.42
2022-09-11T09:27:05.321Z,15.41
2022-09-11T09:29:38.265Z,15.48
2022-09-11T09:32:25.536Z,15.49
2022-09-11T09:34:58.103Z,15.52
2022-09-11T09:37:26.326Z,15.60
2022-09-11T09:39:53.564Z,15.59
2022-09-11T09:42:47.815Z,15.72
2022-09-11T09:45:49.419Z,15.89
2022-09-11T09:48:16.724Z,15.92
2022-09-11T09:50:46.059Z,16.02
2022-09-11T09:53:38.677Z,16.20
2022-09-11T09:56:06.023Z,16.01
2022-09-11T09:58:38.311Z,16.00
2022-09-11T10:01:43.938Z,15.86
2022-09-11T10:04:11.163Z,16.15
2022-09-11T10:06:37.954Z,16.21
2022-09-11T10:09:04.683Z,16.60
2022-09-11T10:11:31.652Z,16.86
2022-09-11T10:13:58.449Z,17.07
2022-09-11T10:16:27.394Z,16.99
2022-09-11T10:18:55.763Z,17.30
2022-09-11T10:21:33.364Z,17.33
2022-09-11T10:24:23.050Z,17.11
2022-09-11T10:26:53.322Z,17.15
2022-09-11T10:29:26.639Z,17.16
2022-09-11T10:31:58.471Z,17.40
2022-09-11T10:34:27.976Z,17.48
2022-09-11T10:37:07.529Z,17.62
2022-09-11T10:39:36.963Z,17.82
2022-09-11T10:42:27.852Z,17.87
2022-09-11T10:45:01.336Z,17.62
2022-09-11T10:47:30.741Z,17.68
2022-09-11T10:50:16.188Z,17.81
2022-09-11T10:52:58.940Z,18.11
2022-09-11T10:55:29.376Z,18.65
2022-09-11T10:58:05.350Z,19.12
2022-09-11T11:00:32.384Z,19.32
2022-09-11T11:03:21.586Z,20.06
2022-09-11T11:06:06.619Z,19.94
2022-09-11T11:08:55.222Z,19.35
2022-09-11T11:11:59.123Z,18.61
2022-09-11T11:14:57.874Z,17.11
2022-09-11T11:17:40.720Z,16.38
2022-09-11T11:20:51.861Z,15.88
2022-09-11T11:23:22.240Z,15.99
2022-09-11T11:26:11.733Z,16.25
2022-09-11T11:28:56.503Z,16.44
2022-09-11T11:31:49.094Z,16.52
2022-09-11T11:34:34.582Z,16.43
2022-09-11T11:37:11.743Z,16.50
2022-09-11T11:39:44.691Z,16.57
2022-09-11T11:42:22.241Z,16.62
2022-09-11T11:45:05.516Z,16.58
2022-09-11T11:47:38.381Z,16.50
2022-09-11T11:50:31.565Z,16.26
2022-09-11T11:53:31.369Z,16.41
2022-09-11T11:56:19.321Z,16.93
2022-09-11T11:59:19.672Z,17.54
2022-09-11T12:02:05.324Z,17.98
2022-09-11T12:04:49.642Z,18.46
2022-09-11T12:07:22.192Z,18.43
2022-09-11T12:09:51.385Z,18.27
2022-09-11T12:12:19.514Z,18.86
2022-09-11T12:14:51.656Z,19.30
2022-09-11T12:17:30.705Z,20.82
2022-09-11T12:20:09.671Z,22.13
2022-09-11T12:22:48.702Z,21.99
2022-09-11T12:25:21.603Z,21.34
2022-09-11T12:28:10.949Z,20.33
2022-09-11T12:31:05.124Z,20.44
2022-09-11T12:33:41.134Z,21.17
2022-09-11T12:36:33.232Z,20.82
2022-09-11T12:39:16.058Z,19.77
2022-09-11T12:41:42.697Z,19.14
2022-09-11T12:44:30.617Z,19.18
2022-09-11T12:46:57.164Z,19.02
2022-09-11T12:49:27.142Z,18.98
2022-09-11T12:51:56.586Z,19.17
2022-09-11T12:54:39.690Z,19.97
2022-09-11T12:57:19.194Z,20.38
2022-09-11T12:59:53.385Z,20.01
2022-09-11T13:02:42.083Z,19.57
2022-09-11T13:05:35.260Z,19.14
2022-09-11T13:08:24.044Z,18.92
2022-09-11T13:10:50.748Z,18.71
2022-09-11T13:13:34.712Z,18.51
2022-09-11T13:16:24.337Z,17.60
2022-09-11T13:19:01.280Z,17.88
2022-09-11T13:21:27.839Z,17.76
2022-09-11T13:23:59.504Z,17.62
2022-09-11T13:26:31.484Z,17.57
2022-09-11T13:29:00.711Z,17.68
2022-09-11T13:31:33.790Z,17.93
2022-09-11T13:34:03.611Z,18.03
2022-09-11T13:36:31.785Z,17.89
2022-09-11T13:39:02.097Z,18.62
2022-09-11T13:41:32.991Z,18.59
2022-09-11T13:44:01.200Z,18.63
2022-09-11T13:46:31.442Z,18.66
2022-09-11T13:49:13.107Z,18.69
2022-09-11T13:51:43.711Z,18.82
2022-09-11T13:54:26.522Z,18.45
2022-09-11T13:56:56.074Z,17.97
2022-09-11T13:59:48.052Z,18.01
2022-09-11T14:02:40.781Z,17.89
2022-09-11T14:05:22.621Z,18.28
2022-09-11T14:07:49.187Z,19.31
2022-09-11T14:10:27.976Z,19.90
2022-09-11T14:13:00.360Z,19.37
2022-09-11T14:15:42.305Z,19.08
2022-09-11T14:18:26.182Z,19.08
2022-09-11T14:20:53.463Z,18.75
2022-09-11T14:23:24.492Z,18.65
2022-09-11T14:26:11.142Z,18.34
2022-09-11T14:28:50.044Z,18.02
2022-09-11T14:31:34.952Z,18.75
2022-09-11T14:34:17.417Z,19.70
2022-09-11T14:36:51.551Z,19.66
2022-09-11T14:39:24.332Z,19.90
2022-09-11T14:41:51.884Z,20.38
2022-09-11T14:44:18.695Z,20.89
2022-09-11T14:46:45.343Z,20.61
2022-09-11T14:49:12.665Z,20.50
2022-09-11T14:51:40.953Z,20.48
2022-09-11T14:54:14.207Z,20.31
2022-09-11T14:56:41.567Z,20.40
2022-09-11T14:59:08.114Z,20.43
2022-09-11T15:01:35.618Z,20.17
2022-09-11T15:04:03.207Z,19.89
2022-09-11T15:06:30.008Z,19.70
2022-09-11T15:08:57.035Z,19.37
2022-09-11T15:11:23.744Z,19.53
2022-09-11T15:14:13.504Z,19.18
2022-09-11T15:16:36.806Z,18.97
2022-09-11T15:19:03.567Z,18.86
2022-09-11T15:21:33.039Z,18.63
2022-09-11T15:24:07.218Z,18.71
2022-09-11T15:26:34.563Z,18.79
2022-09-11T15:29:01.096Z,18.43
2022-09-11T15:31:28.799Z,18.28
2022-09-11T15:33:55.514Z,18.09
2022-09-11T15:36:22.445Z,18.15
2022-09-11T15:38:54.097Z,18.16
2022-09-11T15:41:25.158Z,18.07
2022-09-11T15:43:51.741Z,18.23
2022-09-11T15:46:21.037Z,18.37
2022-09-11T15:48:49.272Z,18.37
2022-09-11T15:51:24.829Z,18.19
2022-09-11T15:53:52.335Z,18.08
2022-09-11T15:56:25.688Z,18.09
2022-09-11T15:58:52.701Z,18.08
2022-09-11T16:01:21.319Z,18.19
2022-09-11T16:03:52.847Z,18.07
2022-09-11T16:06:21.031Z,17.87
2022-09-11T16:08:47.983Z,17.98
2022-09-11T16:11:17.207Z,17.88
2022-09-11T16:13:49.835Z,17.74
2022-09-11T16:16:16.781Z,17.60
2022-09-11T16:18:43.380Z,17.46
2022-09-11T16:21:12.552Z,17.15
2022-09-11T16:23:39.545Z,16.97
2022-09-11T16:26:11.677Z,16.87
2022-09-11T16:28:39.346Z,16.76
2022-09-11T16:31:07.497Z,16.55
2022-09-11T16:33:40.501Z,16.51
2022-09-11T16:36:08.908Z,16.44
2022-09-11T16:38:37.535Z,16.34
2022-09-11T16:41:12.327Z,16.35
2022-09-11T16:43:42.201Z,16.28
2022-09-11T16:46:09.126Z,16.30
2022-09-11T16:48:38.519Z,16.39
2022-09-11T16:51:06.187Z,16.35
2022-09-11T16:53:34.282Z,16.24
2022-09-11T16:56:05.495Z,16.23
2022-09-11T16:58:34.144Z,16.18
2022-09-11T17:01:14.833Z,16.19
2022-09-11T17:03:43.374Z,16.15
2022-09-11T17:06:10.975Z,16.05
2022-09-11T17:08:39.183Z,15.94
2022-09-11T17:11:09.664Z,15.95
2022-09-11T17:13:36.743Z,15.87
2022-09-11T17:16:05.533Z,15.82
2022-09-11T17:18:33.252Z,15.75
2022-09-11T17:21:04.710Z,15.65
2022-09-11T17:23:32.919Z,15.58
2022-09-11T17:25:59.532Z,15.53
2022-09-11T17:28:26.561Z,15.43
2022-09-11T17:30:53.192Z,15.36
2022-09-11T17:33:19.793Z,15.36
2022-09-11T17:35:47.254Z,15.26
2022-09-11T17:38:13.845Z,15.18
2022-09-11T17:40:41.508Z,15.19
2022-09-11T17:43:08.173Z,15.13
2022-09-11T17:45:34.722Z,15.07
2022-09-11T17:48:01.620Z,15.04
2022-09-11T17:50:28.202Z,14.95
2022-09-11T17:52:54.801Z,15.01
2022-09-11T17:55:21.604Z,14.94
2022-09-11T17:57:52.615Z,14.87
2022-09-11T18:00:19.627Z,14.78
2022-09-11T18:02:49.519Z,14.73
2022-09-11T18:05:16.585Z,14.66
2022-09-11T18:07:43.107Z,14.57
2022-09-11T18:10:10.068Z,14.47
2022-09-11T18:12:36.626Z,14.47
2022-09-11T18:15:03.895Z,14.52
2022-09-11T18:17:30.458Z,14.48
2022-09-11T18:20:00.736Z,14.46
2022-09-11T18:22:29.803Z,14.50
2022-09-11T18:24:56.826Z,14.58
2022-09-11T18:27:24.307Z,14.60
2022-09-11T18:29:50.966Z,14.50
2022-09-11T18:32:17.525Z,14.42
2022-09-11T18:34:44.187Z,14.33
2022-09-11T18:37:11.386Z,14.29
2022-09-11T18:39:38.297Z,14.22
2022-09-11T18:42:07.242Z,14.21
2022-09-11T18:44:34.097Z,14.16
2022-09-11T18:47:01.268Z,14.11
2022-09-11T18:49:27.947Z,13.99
2022-09-11T18:51:54.514Z,13.87
2022-09-11T18:54:21.356Z,13.82
2022-09-11T18:56:49.756Z,13.77
2022-09-11T18:59:16.660Z,13.67
2022-09-11T19:01:43.367Z,13.62
2022-09-11T19:04:11.785Z,13.50
2022-09-11T19:06:39.799Z,13.41
2022-09-11T19:09:13.289Z,13.36
2022-09-11T19:11:40.442Z,13.24
2022-09-11T19:14:09.654Z,13.04
2022-09-11T19:16:36.983Z,12.92
2022-09-11T19:19:03.963Z,12.92
2022-09-11T19:21:32.836Z,12.89
2022-09-11T19:24:00.897Z,12.88
2022-09-11T19:26:32.321Z,12.78
2022-09-11T19:29:00.310Z,12.71
2022-09-11T19:31:29.647Z,12.64
2022-09-11T19:34:01.511Z,12.47
2022-09-11T19:36:30.689Z,12.23
2022-09-11T19:39:00.625Z,12.09
2022-09-11T19:41:31.297Z,12.05
2022-09-11T19:44:00.334Z,11.99
2022-09-11T19:46:28.466Z,11.86
2022-09-11T19:48:57.747Z,11.80
2022-09-11T19:51:27.512Z,11.75
2022-09-11T19:53:57.116Z,11.74
2022-09-11T19:56:25.666Z,11.70
2022-09-11T19:58:53.024Z,11.64
2022-09-11T20:01:21.953Z,11.49
2022-09-11T20:03:49.773Z,11.45
2022-09-11T20:06:18.534Z,11.42
2022-09-11T20:08:47.126Z,11.42
2022-09-11T20:11:16.759Z,11.43
2022-09-11T20:13:43.993Z,11.40
2022-09-11T20:16:15.025Z,11.32
2022-09-11T20:18:42.861Z,11.18
2022-09-11T20:21:17.832Z,11.01
2022-09-11T20:23:45.266Z,10.99
2022-09-11T20:26:20.619Z,11.03
2022-09-11T20:28:52.125Z,11.11
2022-09-11T20:31:22.978Z,11.17
2022-09-11T20:33:50.041Z,11.27
2022-09-11T20:36:18.226Z,11.30
2022-09-11T20:38:49.107Z,11.32
2022-09-11T20:41:15.706Z,11.21
2022-09-11T20:43:45.100Z,11.12
2022-09-11T20:46:14.724Z,11.03
2022-09-11T20:48:41.461Z,10.98
2022-09-11T20:51:12.017Z,10.84
2022-09-11T20:53:41.711Z,10.73
2022-09-11T20:56:11.093Z,10.71
2022-09-11T20:58:38.440Z,10.69
2022-09-11T21:01:06.807Z,10.59
2022-09-11T21:03:34.283Z,10.47
2022-09-11T21:06:08.885Z,10.37
2022-09-11T21:08:35.779Z,10.34
2022-09-11T21:11:04.534Z,10.33
2022-09-11T21:13:34.325Z,10.35
2022-09-11T21:16:00.943Z,10.40
2022-09-11T21:18:27.526Z,10.39
2022-09-11T21:20:57.133Z,10.25
2022-09-11T21:23:23.974Z,10.04
2022-09-11T21:25:52.779Z,9.96
2022-09-11T21:28:19.886Z,9.85
2022-09-11T21:30:46.420Z,9.78
2022-09-11T21:33:12.975Z,9.78
2022-09-11T21:35:39.644Z,9.73
2022-09-11T21:38:06.275Z,9.61
2022-09-11T21:40:32.969Z,9.61
2022-09-11T21:42:59.554Z,9.65
2022-09-11T21:45:26.202Z,9.72
2022-09-11T21:47:52.755Z,9.78
2022-09-11T21:50:19.383Z,9.80
2022-09-11T21:52:45.986Z,9.78
2022-09-11T21:55:13.447Z,9.73
2022-09-11T21:57:40.041Z,9.70
2022-09-11T22:00:12.573Z,9.59
2022-09-11T22:02:39.270Z,9.61
2022-09-11T22:05:06.426Z,9.61
2022-09-11T22:07:33.170Z,9.64
2022-09-11T22:10:00.097Z,9.68
2022-09-11T22:12:26.978Z,9.82
2022-09-11T22:14:54.902Z,9.81
2022-09-11T22:17:22.513Z,9.82
2022-09-11T22:19:49.278Z,9.71
2022-09-11T22:22:16.042Z,9.38
2022-09-11T22:24:42.644Z,9.27
2022-09-11T22:27:09.919Z,9.24
2022-09-11T22:29:37.106Z,9.22
2022-09-11T22:32:05.028Z,9.23
2022-09-11T22:34:33.735Z,9.20
2022-09-11T22:37:00.427Z,9.19
2022-09-11T22:39:26.983Z,9.21
2022-09-11T22:41:53.701Z,9.18
2022-09-11T22:44:20.270Z,9.13
2022-09-11T22:46:48.934Z,9.12
2022-09-11T22:49:15.631Z,9.13
2022-09-11T22:51:42.215Z,9.13
2022-09-11T22:54:08.859Z,9.09
2022-09-11T22:56:35.591Z,8.93
2022-09-11T22:59:02.155Z,8.95
2022-09-11T23:01:29.063Z,8.95
2022-09-11T23:03:55.710Z,8.94
2022-09-11T23:06:41.411Z,8.93
2022-09-11T23:09:11.818Z,8.85
2022-09-11T23:11:39.355Z,8.71
2022-09-11T23:14:09.340Z,8.65
2022-09-11T23:16:39.863Z,8.55
2022-09-11T23:19:07.146Z,8.49
2022-09-11T23:21:35.554Z,8.55
2022-09-11T23:24:04.695Z,8.62
2022-09-11T23:26:33.889Z,8.67
2022-09-11T23:29:00.545Z,8.72
2022-09-11T23:31:32.724Z,8.76
2022-09-11T23:34:02.495Z,8.78
2022-09-11T23:36:30.454Z,8.85
2022-09-11T23:38:57.503Z,8.89
2022-09-11T23:41:24.664Z,8.82
2022-09-11T23:43:52.015Z,8.78
2022-09-11T23:46:19.250Z,8.58
2022-09-11T23:48:46.725Z,8.48
2022-09-11T23:51:13.872Z,8.47
2022-09-11T23:53:44.815Z,8.48
2022-09-11T23:56:14.212Z,8.41
2022-09-11T23:58:41.142Z,8.39
